sensor_id;sensor_type;location;lat;lon;timestamp;temperature;humidity
19214;DHT22;9741;51.020;5.304;2023-03-01T00:00:05;-0.80;44.80
19214;DHT22;9741;51.020;5.304;2023-03-01T00:02:34;-0.80;44.90
19214;DHT22;9741;51.020;5.304;2023-03-01T00:05:01;-0.80;44.90
19214;DHT22;9741;51.020;5.304;2023-03-01T00:07:28;-0.90;44.80
19214;DHT22;9741;51.020;5.304;2023-03-01T00:09:56;-0.90;44.90
19214;DHT22;9741;51.020;5.304;2023-03-01T00:12:23;-1.00;44.90
19214;DHT22;9741;51.020;5.304;2023-03-01T00:14:50;-1.00;44.90
19214;DHT22;9741;51.020;5.304;2023-03-01T00:17:17;-1.10;44.90
19214;DHT22;9741;51.020;5.304;2023-03-01T00:19:44;-1.10;45.00
19214;DHT22;9741;51.020;5.304;2023-03-01T00:22:11;-1.20;45.00
19214;DHT22;9741;51.020;5.304;2023-03-01T00:24:38;-1.30;45.00
19214;DHT22;9741;51.020;5.304;2023-03-01T00:27:07;-1.30;45.00
19214;DHT22;9741;51.020;5.304;2023-03-01T00:29:34;-1.30;45.10
19214;DHT22;9741;51.020;5.304;2023-03-01T00:32:01;-1.30;45.10
19214;DHT22;9741;51.020;5.304;2023-03-01T00:34:28;-1.30;45.20
19214;DHT22;9741;51.020;5.304;2023-03-01T00:36:55;-1.30;45.20
19214;DHT22;9741;51.020;5.304;2023-03-01T00:39:31;-1.30;45.30
19214;DHT22;9741;51.020;5.304;2023-03-01T00:41:58;-1.30;45.30
19214;DHT22;9741;51.020;5.304;2023-03-01T00:44:27;-1.30;45.30
19214;DHT22;9741;51.020;5.304;2023-03-01T00:46:55;-1.30;45.50
19214;DHT22;9741;51.020;5.304;2023-03-01T00:49:22;-1.20;45.60
19214;DHT22;9741;51.020;5.304;2023-03-01T00:51:53;-1.20;45.50
19214;DHT22;9741;51.020;5.304;2023-03-01T00:54:20;-1.20;45.50
19214;DHT22;9741;51.020;5.304;2023-03-01T00:56:47;-1.20;45.50
19214;DHT22;9741;51.020;5.304;2023-03-01T00:59:14;-1.30;45.50
19214;DHT22;9741;51.020;5.304;2023-03-01T01:01:42;-1.20;45.70
19214;DHT22;9741;51.020;5.304;2023-03-01T01:04:11;-1.10;45.90
19214;DHT22;9741;51.020;5.304;2023-03-01T01:06:40;-1.10;46.00
19214;DHT22;9741;51.020;5.304;2023-03-01T01:09:10;-1.00;46.10
19214;DHT22;9741;51.020;5.304;2023-03-01T01:11:43;-0.90;46.20
19214;DHT22;9741;51.020;5.304;2023-03-01T01:14:10;-0.80;46.40
19214;DHT22;9741;51.020;5.304;2023-03-01T01:16:37;-0.70;46.30
19214;DHT22;9741;51.020;5.304;2023-03-01T01:19:06;-0.60;46.50
19214;DHT22;9741;51.020;5.304;2023-03-01T01:21:33;-0.60;46.40
19214;DHT22;9741;51.020;5.304;2023-03-01T01:24:00;-0.50;46.50
19214;DHT22;9741;51.020;5.304;2023-03-01T01:26:28;-0.50;46.50
19214;DHT22;9741;51.020;5.304;2023-03-01T01:28:56;-0.50;46.50
19214;DHT22;9741;51.020;5.304;2023-03-01T01:31:23;-0.40;46.60
19214;DHT22;9741;51.020;5.304;2023-03-01T01:33:51;-0.40;46.60
19214;DHT22;9741;51.020;5.304;2023-03-01T01:36:20;-0.40;46.60
19214;DHT22;9741;51.020;5.304;2023-03-01T01:38:48;-0.40;46.60
19214;DHT22;9741;51.020;5.304;2023-03-01T01:41:15;-0.40;46.60
19214;DHT22;9741;51.020;5.304;2023-03-01T01:43:44;-0.40;46.60
19214;DHT22;9741;51.020;5.304;2023-03-01T01:46:17;-0.50;46.60
19214;DHT22;9741;51.020;5.304;2023-03-01T01:48:49;-0.50;46.60
19214;DHT22;9741;51.020;5.304;2023-03-01T01:51:21;-0.60;46.50
19214;DHT22;9741;51.020;5.304;2023-03-01T01:53:53;-0.70;46.50
19214;DHT22;9741;51.020;5.304;2023-03-01T01:56:24;-0.80;46.50
19214;DHT22;9741;51.020;5.304;2023-03-01T01:58:53;-0.90;46.50
19214;DHT22;9741;51.020;5.304;2023-03-01T02:01:20;-0.90;47.10
19214;DHT22;9741;51.020;5.304;2023-03-01T02:03:48;-1.00;46.50
19214;DHT22;9741;51.020;5.304;2023-03-01T02:06:21;-1.10;46.50
19214;DHT22;9741;51.020;5.304;2023-03-01T02:08:49;-1.20;46.50
19214;DHT22;9741;51.020;5.304;2023-03-01T02:11:18;-1.20;46.60
19214;DHT22;9741;51.020;5.304;2023-03-01T02:13:47;-1.20;46.70
19214;DHT22;9741;51.020;5.304;2023-03-01T02:16:16;-1.20;46.80
19214;DHT22;9741;51.020;5.304;2023-03-01T02:18:43;-1.20;46.80
19214;DHT22;9741;51.020;5.304;2023-03-01T02:21:38;-1.20;46.70
19214;DHT22;9741;51.020;5.304;2023-03-01T02:24:18;-1.30;46.70
19214;DHT22;9741;51.020;5.304;2023-03-01T02:26:52;-1.30;46.70
19214;DHT22;9741;51.020;5.304;2023-03-01T02:29:23;-1.40;46.70
19214;DHT22;9741;51.020;5.304;2023-03-01T02:31:52;-1.40;46.80
19214;DHT22;9741;51.020;5.304;2023-03-01T02:34:24;-1.40;46.80
19214;DHT22;9741;51.020;5.304;2023-03-01T02:36:56;-1.40;46.90
19214;DHT22;9741;51.020;5.304;2023-03-01T02:39:26;-1.50;46.80
19214;DHT22;9741;51.020;5.304;2023-03-01T02:41:56;-1.50;46.80
19214;DHT22;9741;51.020;5.304;2023-03-01T02:44:25;-1.60;46.80
19214;DHT22;9741;51.020;5.304;2023-03-01T02:46:55;-1.60;46.90
19214;DHT22;9741;51.020;5.304;2023-03-01T02:49:25;-1.60;46.90
19214;DHT22;9741;51.020;5.304;2023-03-01T02:54:52;-1.70;46.90
19214;DHT22;9741;51.020;5.304;2023-03-01T02:57:22;-1.70;47.00
19214;DHT22;9741;51.020;5.304;2023-03-01T02:59:53;-1.70;47.10
19214;DHT22;9741;51.020;5.304;2023-03-01T03:02:22;-1.70;47.10
19214;DHT22;9741;51.020;5.304;2023-03-01T03:05:06;-1.70;47.00
19214;DHT22;9741;51.020;5.304;2023-03-01T03:07:35;-1.80;46.90
19214;DHT22;9741;51.020;5.304;2023-03-01T03:10:04;-1.90;46.90
19214;DHT22;9741;51.020;5.304;2023-03-01T03:12:31;-1.90;47.00
19214;DHT22;9741;51.020;5.304;2023-03-01T03:15:00;-2.00;47.00
19214;DHT22;9741;51.020;5.304;2023-03-01T03:17:34;-2.00;47.10
19214;DHT22;9741;51.020;5.304;2023-03-01T03:20:01;-1.90;47.40
19214;DHT22;9741;51.020;5.304;2023-03-01T03:22:29;-1.80;47.60
19214;DHT22;9741;51.020;5.304;2023-03-01T03:24:56;-1.70;47.60
19214;DHT22;9741;51.020;5.304;2023-03-01T03:27:23;-1.60;47.70
19214;DHT22;9741;51.020;5.304;2023-03-01T03:29:50;-1.50;47.80
19214;DHT22;9741;51.020;5.304;2023-03-01T03:32:19;-1.40;47.90
19214;DHT22;9741;51.020;5.304;2023-03-01T03:34:46;-1.30;47.90
19214;DHT22;9741;51.020;5.304;2023-03-01T03:37:14;-1.20;47.90
19214;DHT22;9741;51.020;5.304;2023-03-01T03:39:54;-1.20;47.90
19214;DHT22;9741;51.020;5.304;2023-03-01T03:42:22;-1.20;47.80
19214;DHT22;9741;51.020;5.304;2023-03-01T03:44:48;-1.20;47.80
19214;DHT22;9741;51.020;5.304;2023-03-01T03:47:15;-1.20;47.90
19214;DHT22;9741;51.020;5.304;2023-03-01T03:49:44;-1.20;47.90
19214;DHT22;9741;51.020;5.304;2023-03-01T03:52:11;-1.20;47.90
19214;DHT22;9741;51.020;5.304;2023-03-01T03:54:39;-1.20;47.90
19214;DHT22;9741;51.020;5.304;2023-03-01T03:57:06;-1.20;47.90
19214;DHT22;9741;51.020;5.304;2023-03-01T03:59:33;-1.30;47.80
19214;DHT22;9741;51.020;5.304;2023-03-01T04:02:01;-1.30;47.90
19214;DHT22;9741;51.020;5.304;2023-03-01T04:04:28;-1.40;47.90
19214;DHT22;9741;51.020;5.304;2023-03-01T04:06:57;-1.40;47.90
19214;DHT22;9741;51.020;5.304;2023-03-01T04:09:24;-1.50;47.90
19214;DHT22;9741;51.020;5.304;2023-03-01T04:11:51;-1.50;47.90
19214;DHT22;9741;51.020;5.304;2023-03-01T04:14:18;-1.50;48.00
19214;DHT22;9741;51.020;5.304;2023-03-01T04:16:44;-1.60;47.90
19214;DHT22;9741;51.020;5.304;2023-03-01T04:19:11;-1.60;48.00
19214;DHT22;9741;51.020;5.304;2023-03-01T04:21:40;-1.70;47.90
19214;DHT22;9741;51.020;5.304;2023-03-01T04:24:09;-1.70;48.00
19214;DHT22;9741;51.020;5.304;2023-03-01T04:26:36;-1.70;48.00
19214;DHT22;9741;51.020;5.304;2023-03-01T04:29:03;-1.80;48.00
19214;DHT22;9741;51.020;5.304;2023-03-01T04:31:30;-1.80;48.10
19214;DHT22;9741;51.020;5.304;2023-03-01T04:33:57;-1.80;48.10
19214;DHT22;9741;51.020;5.304;2023-03-01T04:36:27;-1.80;48.10
19214;DHT22;9741;51.020;5.304;2023-03-01T04:38:55;-1.90;48.00
19214;DHT22;9741;51.020;5.304;2023-03-01T04:41:24;-1.90;48.00
19214;DHT22;9741;51.020;5.304;2023-03-01T04:43:51;-2.00;48.00
19214;DHT22;9741;51.020;5.304;2023-03-01T04:46:20;-2.00;48.00
19214;DHT22;9741;51.020;5.304;2023-03-01T04:48:47;-2.10;48.00
19214;DHT22;9741;51.020;5.304;2023-03-01T04:51:15;-2.10;48.10
19214;DHT22;9741;51.020;5.304;2023-03-01T04:53:44;-2.10;48.20
19214;DHT22;9741;51.020;5.304;2023-03-01T04:56:11;-2.10;48.30
19214;DHT22;9741;51.020;5.304;2023-03-01T04:58:41;-2.10;48.40
19214;DHT22;9741;51.020;5.304;2023-03-01T05:01:09;-2.10;48.40
19214;DHT22;9741;51.020;5.304;2023-03-01T05:03:41;-2.10;48.30
19214;DHT22;9741;51.020;5.304;2023-03-01T05:06:08;-2.10;48.30
19214;DHT22;9741;51.020;5.304;2023-03-01T05:08:36;-2.10;48.30
19214;DHT22;9741;51.020;5.304;2023-03-01T05:11:04;-2.10;48.30
19214;DHT22;9741;51.020;5.304;2023-03-01T05:13:34;-2.10;48.40
19214;DHT22;9741;51.020;5.304;2023-03-01T05:16:04;-2.00;48.60
19214;DHT22;9741;51.020;5.304;2023-03-01T05:18:33;-2.00;48.60
19214;DHT22;9741;51.020;5.304;2023-03-01T05:21:03;-2.00;48.60
19214;DHT22;9741;51.020;5.304;2023-03-01T05:23:31;-2.00;48.50
19214;DHT22;9741;51.020;5.304;2023-03-01T05:25:58;-2.10;48.40
19214;DHT22;9741;51.020;5.304;2023-03-01T05:28:26;-2.10;48.50
19214;DHT22;9741;51.020;5.304;2023-03-01T05:30:53;-2.10;48.60
19214;DHT22;9741;51.020;5.304;2023-03-01T05:33:22;-2.10;48.80
19214;DHT22;9741;51.020;5.304;2023-03-01T05:35:50;-2.10;48.90
19214;DHT22;9741;51.020;5.304;2023-03-01T05:38:17;-2.00;49.00
19214;DHT22;9741;51.020;5.304;2023-03-01T05:40:47;-2.00;49.00
19214;DHT22;9741;51.020;5.304;2023-03-01T05:43:17;-2.00;49.00
19214;DHT22;9741;51.020;5.304;2023-03-01T05:45:44;-1.90;49.10
19214;DHT22;9741;51.020;5.304;2023-03-01T05:48:12;-1.90;49.00
19214;DHT22;9741;51.020;5.304;2023-03-01T05:50:42;-1.90;49.00
19214;DHT22;9741;51.020;5.304;2023-03-01T05:53:11;-1.90;49.10
19214;DHT22;9741;51.020;5.304;2023-03-01T05:55:39;-1.90;49.00
19214;DHT22;9741;51.020;5.304;2023-03-01T05:58:09;-1.90;49.00
19214;DHT22;9741;51.020;5.304;2023-03-01T06:00:36;-1.90;49.10
19214;DHT22;9741;51.020;5.304;2023-03-01T06:03:03;-1.90;49.10
19214;DHT22;9741;51.020;5.304;2023-03-01T06:05:30;-1.90;49.10
19214;DHT22;9741;51.020;5.304;2023-03-01T06:08:00;-2.00;49.00
19214;DHT22;9741;51.020;5.304;2023-03-01T06:10:27;-2.00;49.10
19214;DHT22;9741;51.020;5.304;2023-03-01T06:12:55;-2.00;49.20
19214;DHT22;9741;51.020;5.304;2023-03-01T06:15:23;-2.00;49.20
19214;DHT22;9741;51.020;5.304;2023-03-01T06:17:50;-2.00;49.20
19214;DHT22;9741;51.020;5.304;2023-03-01T06:20:19;-2.00;49.40
19214;DHT22;9741;51.020;5.304;2023-03-01T06:22:49;-2.00;49.20
19214;DHT22;9741;51.020;5.304;2023-03-01T06:25:20;-2.10;49.20
19214;DHT22;9741;51.020;5.304;2023-03-01T06:27:48;-2.20;49.10
19214;DHT22;9741;51.020;5.304;2023-03-01T06:30:17;-2.20;49.20
19214;DHT22;9741;51.020;5.304;2023-03-01T06:32:44;-2.30;49.10
19214;DHT22;9741;51.020;5.304;2023-03-01T06:35:13;-2.30;49.20
19214;DHT22;9741;51.020;5.304;2023-03-01T06:37:43;-2.40;49.70
19214;DHT22;9741;51.020;5.304;2023-03-01T06:40:10;-2.40;49.10
19214;DHT22;9741;51.020;5.304;2023-03-01T06:42:41;-2.50;49.10
19214;DHT22;9741;51.020;5.304;2023-03-01T06:45:12;-2.50;49.10
19214;DHT22;9741;51.020;5.304;2023-03-01T06:47:39;-2.50;49.30
19214;DHT22;9741;51.020;5.304;2023-03-01T06:50:07;-2.50;49.30
19214;DHT22;9741;51.020;5.304;2023-03-01T06:52:34;-2.50;49.40
19214;DHT22;9741;51.020;5.304;2023-03-01T06:55:01;-2.50;49.40
19214;DHT22;9741;51.020;5.304;2023-03-01T06:57:28;-2.40;49.50
19214;DHT22;9741;51.020;5.304;2023-03-01T06:59:56;-2.40;49.50
19214;DHT22;9741;51.020;5.304;2023-03-01T07:02:24;-2.40;49.50
19214;DHT22;9741;51.020;5.304;2023-03-01T07:04:51;-2.30;49.60
19214;DHT22;9741;51.020;5.304;2023-03-01T07:07:18;-2.30;49.50
19214;DHT22;9741;51.020;5.304;2023-03-01T07:09:45;-2.30;49.50
19214;DHT22;9741;51.020;5.304;2023-03-01T07:12:13;-2.30;49.50
19214;DHT22;9741;51.020;5.304;2023-03-01T07:14:40;-2.20;49.60
19214;DHT22;9741;51.020;5.304;2023-03-01T07:17:08;-2.10;49.70
19214;DHT22;9741;51.020;5.304;2023-03-01T07:19:35;-2.10;49.80
19214;DHT22;9741;51.020;5.304;2023-03-01T07:22:04;-2.00;49.80
19214;DHT22;9741;51.020;5.304;2023-03-01T07:24:33;-1.90;49.80
19214;DHT22;9741;51.020;5.304;2023-03-01T07:27:00;-1.80;49.80
19214;DHT22;9741;51.020;5.304;2023-03-01T07:29:27;-1.70;50.00
19214;DHT22;9741;51.020;5.304;2023-03-01T07:31:55;-1.50;50.20
19214;DHT22;9741;51.020;5.304;2023-03-01T07:34:23;-1.40;50.20
19214;DHT22;9741;51.020;5.304;2023-03-01T07:36:50;-1.20;50.30
19214;DHT22;9741;51.020;5.304;2023-03-01T07:39:18;-1.10;50.30
19214;DHT22;9741;51.020;5.304;2023-03-01T07:41:45;-1.00;50.30
19214;DHT22;9741;51.020;5.304;2023-03-01T07:44:12;-0.80;50.50
19214;DHT22;9741;51.020;5.304;2023-03-01T07:46:39;-0.70;50.50
19214;DHT22;9741;51.020;5.304;2023-03-01T07:49:06;-0.60;50.50
19214;DHT22;9741;51.020;5.304;2023-03-01T07:51:35;-0.50;50.60
19214;DHT22;9741;51.020;5.304;2023-03-01T07:54:02;-0.40;50.60
19214;DHT22;9741;51.020;5.304;2023-03-01T07:56:29;-0.30;50.60
19214;DHT22;9741;51.020;5.304;2023-03-01T07:58:58;-0.20;50.60
19214;DHT22;9741;51.020;5.304;2023-03-01T08:01:25;-0.10;50.60
19214;DHT22;9741;51.020;5.304;2023-03-01T08:03:52;0.00;50.60
19214;DHT22;9741;51.020;5.304;2023-03-01T08:06:19;0.10;50.70
19214;DHT22;9741;51.020;5.304;2023-03-01T08:08:48;0.20;50.70
19214;DHT22;9741;51.020;5.304;2023-03-01T08:11:15;0.30;50.70
19214;DHT22;9741;51.020;5.304;2023-03-01T08:13:43;0.40;50.70
19214;DHT22;9741;51.020;5.304;2023-03-01T08:16:12;0.40;50.60
19214;DHT22;9741;51.020;5.304;2023-03-01T08:18:40;0.50;50.60
19214;DHT22;9741;51.020;5.304;2023-03-01T08:21:10;0.60;50.60
19214;DHT22;9741;51.020;5.304;2023-03-01T08:23:37;0.70;50.60
19214;DHT22;9741;51.020;5.304;2023-03-01T08:26:08;0.80;50.60
19214;DHT22;9741;51.020;5.304;2023-03-01T08:28:36;0.90;50.70
19214;DHT22;9741;51.020;5.304;2023-03-01T08:31:04;1.00;50.60
19214;DHT22;9741;51.020;5.304;2023-03-01T08:33:39;1.10;50.60
19214;DHT22;9741;51.020;5.304;2023-03-01T08:36:07;1.20;50.50
19214;DHT22;9741;51.020;5.304;2023-03-01T08:38:34;1.30;50.50
19214;DHT22;9741;51.020;5.304;2023-03-01T08:41:02;1.30;50.40
19214;DHT22;9741;51.020;5.304;2023-03-01T08:43:31;1.40;50.40
19214;DHT22;9741;51.020;5.304;2023-03-01T08:45:58;1.50;50.40
19214;DHT22;9741;51.020;5.304;2023-03-01T08:48:27;1.60;50.30
19214;DHT22;9741;51.020;5.304;2023-03-01T08:50:54;1.70;50.20
19214;DHT22;9741;51.020;5.304;2023-03-01T08:53:21;1.80;50.10
19214;DHT22;9741;51.020;5.304;2023-03-01T08:55:48;1.90;50.10
19214;DHT22;9741;51.020;5.304;2023-03-01T08:58:15;2.00;50.00
19214;DHT22;9741;51.020;5.304;2023-03-01T09:00:44;2.10;50.00
19214;DHT22;9741;51.020;5.304;2023-03-01T09:03:11;2.10;49.80
19214;DHT22;9741;51.020;5.304;2023-03-01T09:05:39;2.20;49.80
19214;DHT22;9741;51.020;5.304;2023-03-01T09:08:06;2.30;49.70
19214;DHT22;9741;51.020;5.304;2023-03-01T09:10:37;2.40;49.70
19214;DHT22;9741;51.020;5.304;2023-03-01T09:13:04;2.50;49.50
19214;DHT22;9741;51.020;5.304;2023-03-01T09:15:31;2.50;49.40
19214;DHT22;9741;51.020;5.304;2023-03-01T09:18:00;2.60;49.30
19214;DHT22;9741;51.020;5.304;2023-03-01T09:20:27;2.70;49.30
19214;DHT22;9741;51.020;5.304;2023-03-01T09:22:54;2.80;49.20
19214;DHT22;9741;51.020;5.304;2023-03-01T09:25:21;2.90;49.20
19214;DHT22;9741;51.020;5.304;2023-03-01T09:27:50;2.90;48.90
19214;DHT22;9741;51.020;5.304;2023-03-01T09:30:18;3.00;48.90
19214;DHT22;9741;51.020;5.304;2023-03-01T09:32:45;3.10;48.80
19214;DHT22;9741;51.020;5.304;2023-03-01T09:35:13;3.20;48.70
19214;DHT22;9741;51.020;5.304;2023-03-01T09:37:40;3.30;48.50
19214;DHT22;9741;51.020;5.304;2023-03-01T09:40:14;3.30;48.50
19214;DHT22;9741;51.020;5.304;2023-03-01T09:42:48;3.40;48.30
19214;DHT22;9741;51.020;5.304;2023-03-01T09:45:26;3.50;48.30
19214;DHT22;9741;51.020;5.304;2023-03-01T09:47:54;3.50;48.20
19214;DHT22;9741;51.020;5.304;2023-03-01T09:50:34;3.60;48.20
19214;DHT22;9741;51.020;5.304;2023-03-01T09:53:04;3.60;47.90
19214;DHT22;9741;51.020;5.304;2023-03-01T09:55:37;3.70;47.90
19214;DHT22;9741;51.020;5.304;2023-03-01T09:58:27;3.80;47.90
19214;DHT22;9741;51.020;5.304;2023-03-01T10:00:59;3.80;47.80
19214;DHT22;9741;51.020;5.304;2023-03-01T10:03:32;3.90;47.70
19214;DHT22;9741;51.020;5.304;2023-03-01T10:06:08;3.90;47.50
19214;DHT22;9741;51.020;5.304;2023-03-01T10:08:41;4.00;47.50
19214;DHT22;9741;51.020;5.304;2023-03-01T10:11:27;4.00;47.20
19214;DHT22;9741;51.020;5.304;2023-03-01T10:13:59;4.10;47.20
19214;DHT22;9741;51.020;5.304;2023-03-01T10:16:40;4.10;47.10
19214;DHT22;9741;51.020;5.304;2023-03-01T10:19:11;4.10;46.80
19214;DHT22;9741;51.020;5.304;2023-03-01T10:21:45;4.20;46.80
19214;DHT22;9741;51.020;5.304;2023-03-01T10:24:14;4.30;46.80
19214;DHT22;9741;51.020;5.304;2023-03-01T10:27:00;4.30;46.60
19214;DHT22;9741;51.020;5.304;2023-03-01T10:29:40;4.40;46.60
19214;DHT22;9741;51.020;5.304;2023-03-01T10:32:11;4.40;46.50
19214;DHT22;9741;51.020;5.304;2023-03-01T10:34:38;4.50;46.40
19214;DHT22;9741;51.020;5.304;2023-03-01T10:37:12;4.50;46.20
19214;DHT22;9741;51.020;5.304;2023-03-01T10:39:55;4.60;46.30
19214;DHT22;9741;51.020;5.304;2023-03-01T10:42:27;4.60;46.00
19214;DHT22;9741;51.020;5.304;2023-03-01T10:44:55;4.70;46.10
19214;DHT22;9741;51.020;5.304;2023-03-01T10:47:24;4.70;46.00
19214;DHT22;9741;51.020;5.304;2023-03-01T10:49:59;4.80;46.00
19214;DHT22;9741;51.020;5.304;2023-03-01T10:52:31;4.80;46.00
19214;DHT22;9741;51.020;5.304;2023-03-01T10:55:02;4.90;45.90
19214;DHT22;9741;51.020;5.304;2023-03-01T10:57:36;5.00;45.80
19214;DHT22;9741;51.020;5.304;2023-03-01T11:00:25;5.00;45.60
19214;DHT22;9741;51.020;5.304;2023-03-01T11:03:11;5.10;45.60
19214;DHT22;9741;51.020;5.304;2023-03-01T11:05:52;5.10;45.40
19214;DHT22;9741;51.020;5.304;2023-03-01T11:08:41;5.10;45.40
19214;DHT22;9741;51.020;5.304;2023-03-01T11:11:22;5.20;45.40
19214;DHT22;9741;51.020;5.304;2023-03-01T11:13:56;5.20;45.10
19214;DHT22;9741;51.020;5.304;2023-03-01T11:16:33;5.30;44.90
19214;DHT22;9741;51.020;5.304;2023-03-01T11:19:15;5.30;44.70
19214;DHT22;9741;51.020;5.304;2023-03-01T11:21:52;5.40;44.60
19214;DHT22;9741;51.020;5.304;2023-03-01T11:24:27;5.50;44.60
19214;DHT22;9741;51.020;5.304;2023-03-01T11:26:56;5.50;44.50
19214;DHT22;9741;51.020;5.304;2023-03-01T11:29:32;5.60;44.40
19214;DHT22;9741;51.020;5.304;2023-03-01T11:32:05;5.70;44.30
19214;DHT22;9741;51.020;5.304;2023-03-01T11:34:43;5.70;44.30
19214;DHT22;9741;51.020;5.304;2023-03-01T11:37:20;5.80;44.30
19214;DHT22;9741;51.020;5.304;2023-03-01T11:39:58;5.90;44.20
19214;DHT22;9741;51.020;5.304;2023-03-01T11:42:33;6.00;44.10
19214;DHT22;9741;51.020;5.304;2023-03-01T11:45:08;6.00;43.90
19214;DHT22;9741;51.020;5.304;2023-03-01T11:47:55;6.00;43.60
19214;DHT22;9741;51.020;5.304;2023-03-01T11:50:30;6.00;43.30
19214;DHT22;9741;51.020;5.304;2023-03-01T11:53:21;6.10;43.20
19214;DHT22;9741;51.020;5.304;2023-03-01T11:56:15;6.10;43.00
19214;DHT22;9741;51.020;5.304;2023-03-01T11:59:11;6.20;43.00
19214;DHT22;9741;51.020;5.304;2023-03-01T12:01:53;6.20;43.00
19214;DHT22;9741;51.020;5.304;2023-03-01T12:04:44;6.20;42.90
19214;DHT22;9741;51.020;5.304;2023-03-01T12:07:20;6.30;42.80
19214;DHT22;9741;51.020;5.304;2023-03-01T12:10:22;6.30;42.60
19214;DHT22;9741;51.020;5.304;2023-03-01T12:16:20;6.40;42.40
19214;DHT22;9741;51.020;5.304;2023-03-01T12:19:06;6.40;42.30
19214;DHT22;9741;51.020;5.304;2023-03-01T12:21:46;6.50;42.10
19214;DHT22;9741;51.020;5.304;2023-03-01T12:24:37;6.50;41.90
19214;DHT22;9741;51.020;5.304;2023-03-01T12:27:22;6.60;41.90
19214;DHT22;9741;51.020;5.304;2023-03-01T12:30:01;6.70;41.90
19214;DHT22;9741;51.020;5.304;2023-03-01T12:32:51;6.70;41.90
19214;DHT22;9741;51.020;5.304;2023-03-01T12:35:35;6.80;41.80
19214;DHT22;9741;51.020;5.304;2023-03-01T12:38:17;6.80;41.70
19214;DHT22;9741;51.020;5.304;2023-03-01T12:44:05;6.90;41.70
19214;DHT22;9741;51.020;5.304;2023-03-01T12:46:52;7.00;41.60
19214;DHT22;9741;51.020;5.304;2023-03-01T12:49:25;7.00;41.40
19214;DHT22;9741;51.020;5.304;2023-03-01T12:51:59;7.00;41.30
19214;DHT22;9741;51.020;5.304;2023-03-01T12:54:28;7.00;41.10
19214;DHT22;9741;51.020;5.304;2023-03-01T12:56:57;7.10;41.20
19214;DHT22;9741;51.020;5.304;2023-03-01T12:59:30;7.10;41.10
19214;DHT22;9741;51.020;5.304;2023-03-01T13:02:13;7.10;40.90
19214;DHT22;9741;51.020;5.304;2023-03-01T13:04:58;7.20;40.80
19214;DHT22;9741;51.020;5.304;2023-03-01T13:07:32;7.20;40.60
19214;DHT22;9741;51.020;5.304;2023-03-01T13:10:10;7.30;40.50
19214;DHT22;9741;51.020;5.304;2023-03-01T13:12:48;7.30;40.40
19214;DHT22;9741;51.020;5.304;2023-03-01T13:15:28;7.30;40.40
19214;DHT22;9741;51.020;5.304;2023-03-01T13:17:57;7.30;40.40
19214;DHT22;9741;51.020;5.304;2023-03-01T13:20:29;7.30;40.10
19214;DHT22;9741;51.020;5.304;2023-03-01T13:23:24;7.40;40.00
19214;DHT22;9741;51.020;5.304;2023-03-01T13:26:07;7.40;40.00
19214;DHT22;9741;51.020;5.304;2023-03-01T13:28:40;7.50;40.10
19214;DHT22;9741;51.020;5.304;2023-03-01T13:31:09;7.50;39.80
19214;DHT22;9741;51.020;5.304;2023-03-01T13:33:45;7.50;39.60
19214;DHT22;9741;51.020;5.304;2023-03-01T13:36:47;7.50;39.40
19214;DHT22;9741;51.020;5.304;2023-03-01T13:39:30;7.50;39.20
19214;DHT22;9741;51.020;5.304;2023-03-01T13:42:00;7.60;39.30
19214;DHT22;9741;51.020;5.304;2023-03-01T13:44:32;7.60;39.30
19214;DHT22;9741;51.020;5.304;2023-03-01T13:47:07;7.60;39.30
19214;DHT22;9741;51.020;5.304;2023-03-01T13:49:46;7.70;39.20
19214;DHT22;9741;51.020;5.304;2023-03-01T13:52:38;7.70;38.70
19214;DHT22;9741;51.020;5.304;2023-03-01T13:55:16;7.70;38.60
19214;DHT22;9741;51.020;5.304;2023-03-01T13:57:46;7.70;38.60
19214;DHT22;9741;51.020;5.304;2023-03-01T14:00:32;7.70;38.60
19214;DHT22;9741;51.020;5.304;2023-03-01T14:03:13;7.70;38.50
19214;DHT22;9741;51.020;5.304;2023-03-01T14:05:58;7.80;38.60
19214;DHT22;9741;51.020;5.304;2023-03-01T14:08:29;7.80;38.70
19214;DHT22;9741;51.020;5.304;2023-03-01T14:11:20;7.80;38.60
19214;DHT22;9741;51.020;5.304;2023-03-01T14:14:23;7.80;38.60
19214;DHT22;9741;51.020;5.304;2023-03-01T14:17:02;7.80;38.60
19214;DHT22;9741;51.020;5.304;2023-03-01T14:19:33;7.90;38.70
19214;DHT22;9741;51.020;5.304;2023-03-01T14:22:11;7.90;38.50
19214;DHT22;9741;51.020;5.304;2023-03-01T14:24:44;7.90;38.50
19214;DHT22;9741;51.020;5.304;2023-03-01T14:27:13;7.90;38.50
19214;DHT22;9741;51.020;5.304;2023-03-01T14:29:41;7.90;38.40
19214;DHT22;9741;51.020;5.304;2023-03-01T14:32:10;7.90;38.20
19214;DHT22;9741;51.020;5.304;2023-03-01T14:34:43;7.80;37.80
19214;DHT22;9741;51.020;5.304;2023-03-01T14:37:19;7.80;37.80
19214;DHT22;9741;51.020;5.304;2023-03-01T14:39:47;7.90;37.80
19214;DHT22;9741;51.020;5.304;2023-03-01T14:42:15;7.80;37.80
19214;DHT22;9741;51.020;5.304;2023-03-01T14:44:43;7.90;37.80
19214;DHT22;9741;51.020;5.304;2023-03-01T14:47:12;7.90;37.70
19214;DHT22;9741;51.020;5.304;2023-03-01T14:49:42;7.90;37.50
19214;DHT22;9741;51.020;5.304;2023-03-01T14:52:20;7.90;37.40
19214;DHT22;9741;51.020;5.304;2023-03-01T14:54:49;7.90;37.50
19214;DHT22;9741;51.020;5.304;2023-03-01T14:57:18;7.90;37.50
19214;DHT22;9741;51.020;5.304;2023-03-01T14:59:47;7.90;37.60
19214;DHT22;9741;51.020;5.304;2023-03-01T15:02:18;7.90;37.60
19214;DHT22;9741;51.020;5.304;2023-03-01T15:04:47;7.90;37.60
19214;DHT22;9741;51.020;5.304;2023-03-01T15:07:15;7.90;37.70
19214;DHT22;9741;51.020;5.304;2023-03-01T15:09:44;8.00;37.80
19214;DHT22;9741;51.020;5.304;2023-03-01T15:12:34;7.90;37.60
19214;DHT22;9741;51.020;5.304;2023-03-01T15:15:08;8.00;37.70
19214;DHT22;9741;51.020;5.304;2023-03-01T15:17:52;8.00;37.60
19214;DHT22;9741;51.020;5.304;2023-03-01T15:20:22;8.00;37.70
19214;DHT22;9741;51.020;5.304;2023-03-01T15:22:51;7.90;37.50
19214;DHT22;9741;51.020;5.304;2023-03-01T15:25:21;7.90;37.50
19214;DHT22;9741;51.020;5.304;2023-03-01T15:27:51;7.90;37.30
19214;DHT22;9741;51.020;5.304;2023-03-01T15:30:21;7.90;37.30
19214;DHT22;9741;51.020;5.304;2023-03-01T15:32:49;7.90;37.20
19214;DHT22;9741;51.020;5.304;2023-03-01T15:35:45;7.90;37.20
19214;DHT22;9741;51.020;5.304;2023-03-01T15:38:28;7.80;37.10
19214;DHT22;9741;51.020;5.304;2023-03-01T15:40:58;7.80;37.10
19214;DHT22;9741;51.020;5.304;2023-03-01T15:43:40;7.80;37.10
19214;DHT22;9741;51.020;5.304;2023-03-01T15:46:20;7.80;37.00
19214;DHT22;9741;51.020;5.304;2023-03-01T15:48:51;7.70;36.90
19214;DHT22;9741;51.020;5.304;2023-03-01T15:51:26;7.70;36.90
19214;DHT22;9741;51.020;5.304;2023-03-01T15:53:53;7.70;36.90
19214;DHT22;9741;51.020;5.304;2023-03-01T15:56:22;7.70;36.80
19214;DHT22;9741;51.020;5.304;2023-03-01T15:58:49;7.70;36.80
19214;DHT22;9741;51.020;5.304;2023-03-01T16:01:17;7.60;36.70
19214;DHT22;9741;51.020;5.304;2023-03-01T16:03:44;7.60;36.80
19214;DHT22;9741;51.020;5.304;2023-03-01T16:06:12;7.60;36.90
19214;DHT22;9741;51.020;5.304;2023-03-01T16:08:39;7.60;36.90
19214;DHT22;9741;51.020;5.304;2023-03-01T16:11:13;7.60;36.80
19214;DHT22;9741;51.020;5.304;2023-03-01T16:13:42;7.50;36.80
19214;DHT22;9741;51.020;5.304;2023-03-01T16:16:10;7.50;36.70
19214;DHT22;9741;51.020;5.304;2023-03-01T16:18:41;7.50;36.70
19214;DHT22;9741;51.020;5.304;2023-03-01T16:21:16;7.40;36.70
19214;DHT22;9741;51.020;5.304;2023-03-01T16:23:45;7.40;36.70
19214;DHT22;9741;51.020;5.304;2023-03-01T16:26:12;7.30;36.80
19214;DHT22;9741;51.020;5.304;2023-03-01T16:28:40;7.30;36.80
19214;DHT22;9741;51.020;5.304;2023-03-01T16:31:09;7.30;36.80